sensor_id;sensor_type;location;lat;lon;timestamp;temperature;humidity
48768;DHT22;34933;40.968;14.538;2022-07-19T00:02:37;29.30;70.30
48768;DHT22;34933;40.968;14.538;2022-07-19T00:05:22;29.30;70.40
48768;DHT22;34933;40.968;14.538;2022-07-19T00:08:06;29.30;70.20
48768;DHT22;34933;40.968;14.538;2022-07-19T00:10:51;29.30;70.40
48768;DHT22;34933;40.968;14.538;2022-07-19T00:13:36;29.10;69.30
48768;DHT22;34933;40.968;14.538;2022-07-19T00:16:20;29.10;68.50
48768;DHT22;34933;40.968;14.538;2022-07-19T00:19:05;29.20;68.80
48768;DHT22;34933;40.968;14.538;2022-07-19T00:21:49;29.20;68.50
48768;DHT22;34933;40.968;14.538;2022-07-19T00:24:34;29.10;67.50
48768;DHT22;34933;40.968;14.538;2022-07-19T00:27:19;29.20;67.40
48768;DHT22;34933;40.968;14.538;2022-07-19T00:30:05;29.30;66.70
48768;DHT22;34933;40.968;14.538;2022-07-19T00:32:50;29.30;66.60
48768;DHT22;34933;40.968;14.538;2022-07-19T00:35:36;29.30;66.00
48768;DHT22;34933;40.968;14.538;2022-07-19T00:38:21;29.30;66.50
48768;DHT22;34933;40.968;14.538;2022-07-19T00:41:05;29.20;66.50
48768;DHT22;34933;40.968;14.538;2022-07-19T00:43:50;29.20;66.20
48768;DHT22;34933;40.968;14.538;2022-07-19T00:46:35;29.30;64.90
48768;DHT22;34933;40.968;14.538;2022-07-19T00:49:20;29.30;65.00
48768;DHT22;34933;40.968;14.538;2022-07-19T00:52:05;29.30;65.50
48768;DHT22;34933;40.968;14.538;2022-07-19T00:54:52;29.20;64.70
48768;DHT22;34933;40.968;14.538;2022-07-19T00:57:37;29.20;65.70
48768;DHT22;34933;40.968;14.538;2022-07-19T01:00:22;29.10;64.50
48768;DHT22;34933;40.968;14.538;2022-07-19T01:03:08;29.20;63.40
48768;DHT22;34933;40.968;14.538;2022-07-19T01:05:52;29.20;63.60
48768;DHT22;34933;40.968;14.538;2022-07-19T01:08:37;29.30;62.50
48768;DHT22;34933;40.968;14.538;2022-07-19T01:11:22;29.40;63.90
48768;DHT22;34933;40.968;14.538;2022-07-19T01:14:06;29.30;63.90
48768;DHT22;34933;40.968;14.538;2022-07-19T01:16:51;29.30;63.00
48768;DHT22;34933;40.968;14.538;2022-07-19T01:19:36;29.40;62.70
48768;DHT22;34933;40.968;14.538;2022-07-19T01:22:20;29.40;63.50
48768;DHT22;34933;40.968;14.538;2022-07-19T01:25:06;29.40;63.70
48768;DHT22;34933;40.968;14.538;2022-07-19T01:27:50;29.40;63.50
48768;DHT22;34933;40.968;14.538;2022-07-19T01:30:35;29.30;63.80
48768;DHT22;34933;40.968;14.538;2022-07-19T01:33:20;29.20;63.20
48768;DHT22;34933;40.968;14.538;2022-07-19T01:36:05;29.20;65.60
48768;DHT22;34933;40.968;14.538;2022-07-19T01:38:50;29.10;65.90
48768;DHT22;34933;40.968;14.538;2022-07-19T01:41:34;29.00;65.80
48768;DHT22;34933;40.968;14.538;2022-07-19T01:44:19;28.90;66.30
48768;DHT22;34933;40.968;14.538;2022-07-19T01:47:03;29.00;65.10
48768;DHT22;34933;40.968;14.538;2022-07-19T01:49:48;29.00;64.30
48768;DHT22;34933;40.968;14.538;2022-07-19T01:52:33;29.00;65.30
48768;DHT22;34933;40.968;14.538;2022-07-19T01:55:19;29.00;65.90
48768;DHT22;34933;40.968;14.538;2022-07-19T01:58:04;28.90;66.60
48768;DHT22;34933;40.968;14.538;2022-07-19T02:00:50;28.90;65.70
48768;DHT22;34933;40.968;14.538;2022-07-19T02:03:34;28.80;65.90
48768;DHT22;34933;40.968;14.538;2022-07-19T02:06:19;28.80;65.70
48768;DHT22;34933;40.968;14.538;2022-07-19T02:09:03;28.80;65.70
48768;DHT22;34933;40.968;14.538;2022-07-19T02:11:47;28.60;66.30
48768;DHT22;34933;40.968;14.538;2022-07-19T02:14:32;28.60;67.10
48768;DHT22;34933;40.968;14.538;2022-07-19T02:17:17;28.50;67.30
48768;DHT22;34933;40.968;14.538;2022-07-19T02:20:03;28.60;66.40
48768;DHT22;34933;40.968;14.538;2022-07-19T02:22:47;28.70;66.30
48768;DHT22;34933;40.968;14.538;2022-07-19T02:25:32;28.60;66.90
48768;DHT22;34933;40.968;14.538;2022-07-19T02:28:18;28.60;65.80
48768;DHT22;34933;40.968;14.538;2022-07-19T02:31:03;28.60;65.30
48768;DHT22;34933;40.968;14.538;2022-07-19T02:33:48;28.60;64.50
48768;DHT22;34933;40.968;14.538;2022-07-19T02:36:32;28.50;65.70
48768;DHT22;34933;40.968;14.538;2022-07-19T02:39:17;28.50;64.40
48768;DHT22;34933;40.968;14.538;2022-07-19T02:42:01;28.50;63.70
48768;DHT22;34933;40.968;14.538;2022-07-19T02:44:46;28.50;63.30
48768;DHT22;34933;40.968;14.538;2022-07-19T02:47:31;28.30;64.40
48768;DHT22;34933;40.968;14.538;2022-07-19T02:50:15;28.30;63.80
48768;DHT22;34933;40.968;14.538;2022-07-19T02:53:00;28.30;64.20
48768;DHT22;34933;40.968;14.538;2022-07-19T02:55:45;28.30;63.90
48768;DHT22;34933;40.968;14.538;2022-07-19T02:58:30;28.30;63.80
48768;DHT22;34933;40.968;14.538;2022-07-19T03:01:14;28.20;63.40
48768;DHT22;34933;40.968;14.538;2022-07-19T03:04:00;28.10;64.40
48768;DHT22;34933;40.968;14.538;2022-07-19T03:06:45;28.00;64.40
48768;DHT22;34933;40.968;14.538;2022-07-19T03:09:29;28.00;64.30
48768;DHT22;34933;40.968;14.538;2022-07-19T03:12:14;27.90;64.90
48768;DHT22;34933;40.968;14.538;2022-07-19T03:14:58;27.90;64.10
48768;DHT22;34933;40.968;14.538;2022-07-19T03:17:43;27.90;63.50
48768;DHT22;34933;40.968;14.538;2022-07-19T03:20:28;27.90;63.90
48768;DHT22;34933;40.968;14.538;2022-07-19T03:23:12;27.80;64.40
48768;DHT22;34933;40.968;14.538;2022-07-19T03:25:57;27.90;64.50
48768;DHT22;34933;40.968;14.538;2022-07-19T03:28:42;28.00;64.40
48768;DHT22;34933;40.968;14.538;2022-07-19T03:31:26;28.00;65.00
48768;DHT22;34933;40.968;14.538;2022-07-19T03:34:11;28.20;63.90
48768;DHT22;34933;40.968;14.538;2022-07-19T03:36:55;28.10;64.40
48768;DHT22;34933;40.968;14.538;2022-07-19T03:39:40;28.00;64.40
48768;DHT22;34933;40.968;14.538;2022-07-19T03:42:25;28.00;65.00
48768;DHT22;34933;40.968;14.538;2022-07-19T03:45:10;28.00;65.10
48768;DHT22;34933;40.968;14.538;2022-07-19T03:47:54;28.10;64.40
48768;DHT22;34933;40.968;14.538;2022-07-19T03:50:39;28.20;64.10
48768;DHT22;34933;40.968;14.538;2022-07-19T03:53:23;28.20;63.80
48768;DHT22;34933;40.968;14.538;2022-07-19T03:56:09;28.10;64.30
48768;DHT22;34933;40.968;14.538;2022-07-19T03:58:54;28.00;64.30
48768;DHT22;34933;40.968;14.538;2022-07-19T04:01:38;27.90;64.50
48768;DHT22;34933;40.968;14.538;2022-07-19T04:04:23;27.90;64.60
48768;DHT22;34933;40.968;14.538;2022-07-19T04:07:07;27.90;63.50
48768;DHT22;34933;40.968;14.538;2022-07-19T04:09:52;28.10;62.70
48768;DHT22;34933;40.968;14.538;2022-07-19T04:12:36;28.00;62.80
48768;DHT22;34933;40.968;14.538;2022-07-19T04:15:21;28.00;63.10
48768;DHT22;34933;40.968;14.538;2022-07-19T04:18:05;28.00;63.50
48768;DHT22;34933;40.968;14.538;2022-07-19T04:20:50;27.90;64.30
48768;DHT22;34933;40.968;14.538;2022-07-19T04:23:35;27.80;64.50
48768;DHT22;34933;40.968;14.538;2022-07-19T04:26:19;27.70;63.00
48768;DHT22;34933;40.968;14.538;2022-07-19T04:29:04;27.80;63.40
48768;DHT22;34933;40.968;14.538;2022-07-19T04:31:48;27.80;62.60
48768;DHT22;34933;40.968;14.538;2022-07-19T04:34:33;27.60;66.70
48768;DHT22;34933;40.968;14.538;2022-07-19T04:37:18;27.20;69.10
48768;DHT22;34933;40.968;14.538;2022-07-19T04:40:03;26.80;70.20
48768;DHT22;34933;40.968;14.538;2022-07-19T04:42:48;26.60;71.10
48768;DHT22;34933;40.968;14.538;2022-07-19T04:45:33;26.30;72.70
48768;DHT22;34933;40.968;14.538;2022-07-19T04:48:17;26.00;73.90
48768;DHT22;34933;40.968;14.538;2022-07-19T04:51:02;25.80;75.10
48768;DHT22;34933;40.968;14.538;2022-07-19T04:53:46;25.70;75.60
48768;DHT22;34933;40.968;14.538;2022-07-19T04:56:31;25.60;76.50
48768;DHT22;34933;40.968;14.538;2022-07-19T04:59:15;25.60;76.30
48768;DHT22;34933;40.968;14.538;2022-07-19T05:02:00;25.60;77.80
48768;DHT22;34933;40.968;14.538;2022-07-19T05:04:45;25.50;77.20
48768;DHT22;34933;40.968;14.538;2022-07-19T05:07:29;25.60;77.60
48768;DHT22;34933;40.968;14.538;2022-07-19T05:10:14;25.60;78.90
48768;DHT22;34933;40.968;14.538;2022-07-19T05:12:59;25.70;79.00
48768;DHT22;34933;40.968;14.538;2022-07-19T05:15:44;25.70;81.10
48768;DHT22;34933;40.968;14.538;2022-07-19T05:18:28;25.60;79.50
48768;DHT22;34933;40.968;14.538;2022-07-19T05:21:13;25.70;80.10
48768;DHT22;34933;40.968;14.538;2022-07-19T05:23:58;25.80;81.70
48768;DHT22;34933;40.968;14.538;2022-07-19T05:26:43;25.90;78.70
48768;DHT22;34933;40.968;14.538;2022-07-19T05:29:27;25.90;78.30
48768;DHT22;34933;40.968;14.538;2022-07-19T05:32:12;26.10;77.90
48768;DHT22;34933;40.968;14.538;2022-07-19T05:34:56;26.20;75.70
48768;DHT22;34933;40.968;14.538;2022-07-19T05:37:41;26.40;76.40
48768;DHT22;34933;40.968;14.538;2022-07-19T05:40:26;26.50;79.00
48768;DHT22;34933;40.968;14.538;2022-07-19T05:43:10;26.60;75.90
48768;DHT22;34933;40.968;14.538;2022-07-19T05:45:55;26.70;76.00
48768;DHT22;34933;40.968;14.538;2022-07-19T05:48:40;26.80;75.40
48768;DHT22;34933;40.968;14.538;2022-07-19T05:51:24;27.00;70.40
48768;DHT22;34933;40.968;14.538;2022-07-19T05:54:09;27.40;67.30
48768;DHT22;34933;40.968;14.538;2022-07-19T05:56:54;27.70;67.30
48768;DHT22;34933;40.968;14.538;2022-07-19T05:59:38;27.90;68.10
48768;DHT22;34933;40.968;14.538;2022-07-19T06:02:24;28.10;65.70
48768;DHT22;34933;40.968;14.538;2022-07-19T06:05:09;28.30;65.50
48768;DHT22;34933;40.968;14.538;2022-07-19T06:07:53;28.50;67.00
48768;DHT22;34933;40.968;14.538;2022-07-19T06:10:38;28.50;67.00
48768;DHT22;34933;40.968;14.538;2022-07-19T06:13:23;28.70;64.40
48768;DHT22;34933;40.968;14.538;2022-07-19T06:16:08;28.80;64.20
48768;DHT22;34933;40.968;14.538;2022-07-19T06:18:53;28.90;64.70
48768;DHT22;34933;40.968;14.538;2022-07-19T06:21:37;29.00;65.60
48768;DHT22;34933;40.968;14.538;2022-07-19T06:24:22;29.00;65.20
48768;DHT22;34933;40.968;14.538;2022-07-19T06:27:06;29.20;65.90
48768;DHT22;34933;40.968;14.538;2022-07-19T06:29:51;29.20;64.30
48768;DHT22;34933;40.968;14.538;2022-07-19T06:32:35;29.40;63.00
48768;DHT22;34933;40.968;14.538;2022-07-19T06:35:20;29.50;63.60
48768;DHT22;34933;40.968;14.538;2022-07-19T06:38:05;29.60;63.70
48768;DHT22;34933;40.968;14.538;2022-07-19T06:40:49;29.70;64.50
48768;DHT22;34933;40.968;14.538;2022-07-19T06:43:34;29.80;62.10
48768;DHT22;34933;40.968;14.538;2022-07-19T06:46:19;29.90;60.90
48768;DHT22;34933;40.968;14.538;2022-07-19T06:49:03;30.00;61.60
48768;DHT22;34933;40.968;14.538;2022-07-19T06:51:48;30.10;60.30
48768;DHT22;34933;40.968;14.538;2022-07-19T06:54:33;30.10;60.50
48768;DHT22;34933;40.968;14.538;2022-07-19T06:57:18;30.20;60.40
48768;DHT22;34933;40.968;14.538;2022-07-19T07:00:04;30.40;60.40
48768;DHT22;34933;40.968;14.538;2022-07-19T07:02:50;30.50;60.80
48768;DHT22;34933;40.968;14.538;2022-07-19T07:05:35;30.50;61.70
48768;DHT22;34933;40.968;14.538;2022-07-19T07:08:20;30.60;58.60
48768;DHT22;34933;40.968;14.538;2022-07-19T07:11:05;30.70;56.80
48768;DHT22;34933;40.968;14.538;2022-07-19T07:13:49;30.80;58.80
48768;DHT22;34933;40.968;14.538;2022-07-19T07:16:34;30.90;58.40
48768;DHT22;34933;40.968;14.538;2022-07-19T07:19:18;30.90;59.60
48768;DHT22;34933;40.968;14.538;2022-07-19T07:22:03;31.00;58.10
48768;DHT22;34933;40.968;14.538;2022-07-19T07:24:47;31.10;58.40
48768;DHT22;34933;40.968;14.538;2022-07-19T07:27:32;31.10;58.00
48768;DHT22;34933;40.968;14.538;2022-07-19T07:30:16;31.20;59.00
48768;DHT22;34933;40.968;14.538;2022-07-19T07:33:01;31.30;57.90
48768;DHT22;34933;40.968;14.538;2022-07-19T07:35:45;31.30;58.00
48768;DHT22;34933;40.968;14.538;2022-07-19T07:38:30;31.40;58.00
48768;DHT22;34933;40.968;14.538;2022-07-19T07:41:15;31.50;57.30
48768;DHT22;34933;40.968;14.538;2022-07-19T07:43:59;31.50;58.00
48768;DHT22;34933;40.968;14.538;2022-07-19T07:46:44;31.60;58.40
48768;DHT22;34933;40.968;14.538;2022-07-19T07:49:28;31.70;57.60
48768;DHT22;34933;40.968;14.538;2022-07-19T07:52:14;31.70;57.80
48768;DHT22;34933;40.968;14.538;2022-07-19T07:54:58;31.80;58.20
48768;DHT22;34933;40.968;14.538;2022-07-19T07:57:43;31.90;57.70
48768;DHT22;34933;40.968;14.538;2022-07-19T08:00:28;31.90;56.90
48768;DHT22;34933;40.968;14.538;2022-07-19T08:03:12;31.90;56.80
48768;DHT22;34933;40.968;14.538;2022-07-19T08:05:57;32.00;56.20
48768;DHT22;34933;40.968;14.538;2022-07-19T08:08:42;32.10;56.30
48768;DHT22;34933;40.968;14.538;2022-07-19T08:11:26;32.20;56.50
48768;DHT22;34933;40.968;14.538;2022-07-19T08:14:11;32.30;56.50
48768;DHT22;34933;40.968;14.538;2022-07-19T08:16:55;32.30;56.40
48768;DHT22;34933;40.968;14.538;2022-07-19T08:19:41;32.30;57.00
48768;DHT22;34933;40.968;14.538;2022-07-19T08:22:26;32.30;56.80
48768;DHT22;34933;40.968;14.538;2022-07-19T08:25:12;32.40;57.20
48768;DHT22;34933;40.968;14.538;2022-07-19T08:28:01;32.50;57.20
48768;DHT22;34933;40.968;14.538;2022-07-19T08:30:45;32.60;57.20
48768;DHT22;34933;40.968;14.538;2022-07-19T08:33:30;32.70;57.90
48768;DHT22;34933;40.968;14.538;2022-07-19T08:36:15;32.80;57.80
48768;DHT22;34933;40.968;14.538;2022-07-19T08:38:59;32.90;57.80
48768;DHT22;34933;40.968;14.538;2022-07-19T08:41:44;32.90;55.80
48768;DHT22;34933;40.968;14.538;2022-07-19T08:44:29;33.10;56.80
48768;DHT22;34933;40.968;14.538;2022-07-19T08:47:14;33.10;56.00
48768;DHT22;34933;40.968;14.538;2022-07-19T08:50:00;33.10;58.20
48768;DHT22;34933;40.968;14.538;2022-07-19T08:52:45;33.30;57.40
48768;DHT22;34933;40.968;14.538;2022-07-19T08:55:29;33.40;56.60
48768;DHT22;34933;40.968;14.538;2022-07-19T08:58:14;33.50;55.60
48768;DHT22;34933;40.968;14.538;2022-07-19T09:00:59;33.60;56.20
48768;DHT22;34933;40.968;14.538;2022-07-19T09:06:57;33.70;56.30
48768;DHT22;34933;40.968;14.538;2022-07-19T09:09:42;33.80;57.00
48768;DHT22;34933;40.968;14.538;2022-07-19T09:12:26;33.90;56.00
48768;DHT22;34933;40.968;14.538;2022-07-19T09:15:11;34.00;56.60
48768;DHT22;34933;40.968;14.538;2022-07-19T09:18:10;34.00;56.90
48768;DHT22;34933;40.968;14.538;2022-07-19T09:20:56;34.10;56.90
48768;DHT22;34933;40.968;14.538;2022-07-19T09:23:41;34.30;56.50
48768;DHT22;34933;40.968;14.538;2022-07-19T09:26:26;34.50;56.50
48768;DHT22;34933;40.968;14.538;2022-07-19T09:29:17;34.40;55.10
48768;DHT22;34933;40.968;14.538;2022-07-19T09:32:24;34.50;55.30
48768;DHT22;34933;40.968;14.538;2022-07-19T09:35:09;34.60;56.30
48768;DHT22;34933;40.968;14.538;2022-07-19T09:46:40;34.60;56.00
48768;DHT22;34933;40.968;14.538;2022-07-19T09:49:27;34.60;56.20
48768;DHT22;34933;40.968;14.538;2022-07-19T09:52:18;34.60;56.10
48768;DHT22;34933;40.968;14.538;2022-07-19T09:55:06;34.90;55.00
48768;DHT22;34933;40.968;14.538;2022-07-19T09:57:51;34.90;54.80
48768;DHT22;34933;40.968;14.538;2022-07-19T10:00:37;35.00;54.80
48768;DHT22;34933;40.968;14.538;2022-07-19T10:03:22;35.30;54.80
48768;DHT22;34933;40.968;14.538;2022-07-19T10:06:07;35.50;55.30
48768;DHT22;34933;40.968;14.538;2022-07-19T10:08:53;35.70;54.20
48768;DHT22;34933;40.968;14.538;2022-07-19T10:11:38;35.80;55.00
48768;DHT22;34933;40.968;14.538;2022-07-19T10:14:24;35.80;54.40
48768;DHT22;34933;40.968;14.538;2022-07-19T10:17:30;35.90;56.00
48768;DHT22;34933;40.968;14.538;2022-07-19T10:20:21;36.10;55.40
48768;DHT22;34933;40.968;14.538;2022-07-19T10:23:06;36.10;54.80
48768;DHT22;34933;40.968;14.538;2022-07-19T10:25:50;36.10;55.80
48768;DHT22;34933;40.968;14.538;2022-07-19T10:28:37;36.30;55.90
48768;DHT22;34933;40.968;14.538;2022-07-19T10:31:29;36.30;53.30
48768;DHT22;34933;40.968;14.538;2022-07-19T10:34:22;36.10;54.50
48768;DHT22;34933;40.968;14.538;2022-07-19T10:37:07;36.20;54.90
48768;DHT22;34933;40.968;14.538;2022-07-19T10:39:57;36.20;51.50
48768;DHT22;34933;40.968;14.538;2022-07-19T10:43:06;36.20;51.20
48768;DHT22;34933;40.968;14.538;2022-07-19T10:48:42;36.30;53.60
48768;DHT22;34933;40.968;14.538;2022-07-19T10:51:31;36.60;55.40
48768;DHT22;34933;40.968;14.538;2022-07-19T10:54:18;36.70;54.00
48768;DHT22;34933;40.968;14.538;2022-07-19T10:57:03;36.80;53.60
48768;DHT22;34933;40.968;14.538;2022-07-19T10:59:47;36.70;53.90
48768;DHT22;34933;40.968;14.538;2022-07-19T11:02:32;36.80;52.70
48768;DHT22;34933;40.968;14.538;2022-07-19T11:05:20;36.90;52.10
48768;DHT22;34933;40.968;14.538;2022-07-19T11:08:06;37.00;52.50
48768;DHT22;34933;40.968;14.538;2022-07-19T11:10:50;37.20;52.90
48768;DHT22;34933;40.968;14.538;2022-07-19T11:13:36;37.30;53.30
48768;DHT22;34933;40.968;14.538;2022-07-19T11:16:25;37.40;53.50
48768;DHT22;34933;40.968;14.538;2022-07-19T11:19:10;37.30;52.70
48768;DHT22;34933;40.968;14.538;2022-07-19T11:21:54;37.30;53.20
48768;DHT22;34933;40.968;14.538;2022-07-19T11:24:44;37.30;53.40
48768;DHT22;34933;40.968;14.538;2022-07-19T11:27:30;37.40;54.40
48768;DHT22;34933;40.968;14.538;2022-07-19T11:30:15;37.90;55.00
48768;DHT22;34933;40.968;14.538;2022-07-19T11:33:05;37.90;54.60
48768;DHT22;34933;40.968;14.538;2022-07-19T11:35:58;38.00;54.10
48768;DHT22;34933;40.968;14.538;2022-07-19T11:38:46;37.60;54.50
48768;DHT22;34933;40.968;14.538;2022-07-19T11:41:32;37.80;54.30
48768;DHT22;34933;40.968;14.538;2022-07-19T11:44:17;38.10;55.00
48768;DHT22;34933;40.968;14.538;2022-07-19T11:47:02;38.30;54.30
48768;DHT22;34933;40.968;14.538;2022-07-19T11:49:47;38.40;53.70
48768;DHT22;34933;40.968;14.538;2022-07-19T11:52:45;38.40;52.70
48768;DHT22;34933;40.968;14.538;2022-07-19T11:55:38;38.80;54.20
48768;DHT22;34933;40.968;14.538;2022-07-19T11:58:23;38.60;52.20
48768;DHT22;34933;40.968;14.538;2022-07-19T12:01:07;38.60;53.10
48768;DHT22;34933;40.968;14.538;2022-07-19T12:03:57;39.10;53.10
48768;DHT22;34933;40.968;14.538;2022-07-19T12:06:50;38.80;51.90
48768;DHT22;34933;40.968;14.538;2022-07-19T12:09:36;39.30;52.00
48768;DHT22;34933;40.968;14.538;2022-07-19T12:12:21;39.70;52.70
48768;DHT22;34933;40.968;14.538;2022-07-19T12:15:07;39.70;52.60
48768;DHT22;34933;40.968;14.538;2022-07-19T12:17:58;40.50;53.30
48768;DHT22;34933;40.968;14.538;2022-07-19T12:20:44;41.10;52.30
48768;DHT22;34933;40.968;14.538;2022-07-19T12:23:28;40.40;52.00
48768;DHT22;34933;40.968;14.538;2022-07-19T12:26:13;41.10;53.00
48768;DHT22;34933;40.968;14.538;2022-07-19T12:28:58;41.60;52.00
48768;DHT22;34933;40.968;14.538;2022-07-19T12:31:44;41.30;52.10
48768;DHT22;34933;40.968;14.538;2022-07-19T12:34:48;41.40;52.70
48768;DHT22;34933;40.968;14.538;2022-07-19T12:37:35;41.50;52.00
48768;DHT22;34933;40.968;14.538;2022-07-19T12:40:22;41.50;51.70
48768;DHT22;34933;40.968;14.538;2022-07-19T12:43:08;41.50;52.10
48768;DHT22;34933;40.968;14.538;2022-07-19T12:45:59;42.30;51.50
48768;DHT22;34933;40.968;14.538;2022-07-19T12:48:45;41.50;51.50
48768;DHT22;34933;40.968;14.538;2022-07-19T12:51:30;41.60;51.50
48768;DHT22;34933;40.968;14.538;2022-07-19T12:54:15;42.60;52.20
48768;DHT22;34933;40.968;14.538;2022-07-19T12:56:59;43.00;51.50
48768;DHT22;34933;40.968;14.538;2022-07-19T12:59:44;43.70;51.80
48768;DHT22;34933;40.968;14.538;2022-07-19T13:02:29;43.70;50.70
48768;DHT22;34933;40.968;14.538;2022-07-19T13:05:14;44.20;51.40
48768;DHT22;34933;40.968;14.538;2022-07-19T13:07:59;44.20;51.80
48768;DHT22;34933;40.968;14.538;2022-07-19T13:10:44;44.40;51.10
48768;DHT22;34933;40.968;14.538;2022-07-19T13:13:29;44.60;51.00
48768;DHT22;34933;40.968;14.538;2022-07-19T13:16:13;43.90;50.90
48768;DHT22;34933;40.968;14.538;2022-07-19T13:18:58;44.20;51.30
48768;DHT22;34933;40.968;14.538;2022-07-19T13:21:43;44.80;50.70
48768;DHT22;34933;40.968;14.538;2022-07-19T13:24:27;45.00;51.10
48768;DHT22;34933;40.968;14.538;2022-07-19T13:27:12;45.40;50.40
48768;DHT22;34933;40.968;14.538;2022-07-19T13:29:57;45.10;50.30
48768;DHT22;34933;40.968;14.538;2022-07-19T13:32:41;44.20;50.60
48768;DHT22;34933;40.968;14.538;2022-07-19T13:35:26;44.70;50.60
48768;DHT22;34933;40.968;14.538;2022-07-19T13:38:10;45.30;50.60
48768;DHT22;34933;40.968;14.538;2022-07-19T13:40:55;45.30;50.90
48768;DHT22;34933;40.968;14.538;2022-07-19T13:43:40;45.90;50.40
48768;DHT22;34933;40.968;14.538;2022-07-19T13:46:25;46.30;50.50
48768;DHT22;34933;40.968;14.538;2022-07-19T13:49:09;46.50;50.50
48768;DHT22;34933;40.968;14.538;2022-07-19T13:51:54;46.70;49.10
48768;DHT22;34933;40.968;14.538;2022-07-19T13:54:39;46.00;48.90
48768;DHT22;34933;40.968;14.538;2022-07-19T13:57:23;45.00;50.00
48768;DHT22;34933;40.968;14.538;2022-07-19T14:00:09;45.10;49.30
48768;DHT22;34933;40.968;14.538;2022-07-19T14:02:57;45.00;50.30
48768;DHT22;34933;40.968;14.538;2022-07-19T14:05:42;45.40;49.20
48768;DHT22;34933;40.968;14.538;2022-07-19T14:08:26;45.60;50.00
48768;DHT22;34933;40.968;14.538;2022-07-19T14:11:11;46.40;48.40
48768;DHT22;34933;40.968;14.538;2022-07-19T14:13:55;46.10;47.80
48768;DHT22;34933;40.968;14.538;2022-07-19T14:16:40;45.10;47.90
48768;DHT22;34933;40.968;14.538;2022-07-19T14:19:25;44.00;48.90
48768;DHT22;34933;40.968;14.538;2022-07-19T14:22:09;45.10;48.70
48768;DHT22;34933;40.968;14.538;2022-07-19T14:24:54;45.20;49.10
48768;DHT22;34933;40.968;14.538;2022-07-19T14:27:38;45.20;48.00
48768;DHT22;34933;40.968;14.538;2022-07-19T14:30:23;46.50;49.00
48768;DHT22;34933;40.968;14.538;2022-07-19T14:33:09;46.70;47.40
48768;DHT22;34933;40.968;14.538;2022-07-19T14:35:53;47.30;49.10
48768;DHT22;34933;40.968;14.538;2022-07-19T14:38:38;47.70;48.20
48768;DHT22;34933;40.968;14.538;2022-07-19T14:41:22;47.10;47.10
48768;DHT22;34933;40.968;14.538;2022-07-19T14:44:08;46.30;48.20
48768;DHT22;34933;40.968;14.538;2022-07-19T14:46:53;46.00;48.60
48768;DHT22;34933;40.968;14.538;2022-07-19T14:49:39;46.90;49.00
48768;DHT22;34933;40.968;14.538;2022-07-19T14:52:23;47.60;48.30
48768;DHT22;34933;40.968;14.538;2022-07-19T14:55:10;48.30;48.00
48768;DHT22;34933;40.968;14.538;2022-07-19T14:57:55;48.90;48.20
48768;DHT22;34933;40.968;14.538;2022-07-19T15:00:39;49.10;48.10
48768;DHT22;34933;40.968;14.538;2022-07-19T15:03:24;48.70;47.30
48768;DHT22;34933;40.968;14.538;2022-07-19T15:06:09;47.30;47.60
48768;DHT22;34933;40.968;14.538;2022-07-19T15:08:53;47.60;48.00
48768;DHT22;34933;40.968;14.538;2022-07-19T15:11:39;48.00;47.30
48768;DHT22;34933;40.968;14.538;2022-07-19T15:14:24;48.00;47.80
48768;DHT22;34933;40.968;14.538;2022-07-19T15:17:08;47.80;47.80
48768;DHT22;34933;40.968;14.538;2022-07-19T15:19:53;47.80;48.30
48768;DHT22;34933;40.968;14.538;2022-07-19T15:22:37;47.70;48.10
48768;DHT22;34933;40.968;14.538;2022-07-19T15:25:22;47.60;47.70
48768;DHT22;34933;40.968;14.538;2022-07-19T15:28:07;46.30;47.60
48768;DHT22;34933;40.968;14.538;2022-07-19T15:30:51;45.80;48.40
48768;DHT22;34933;40.968;14.538;2022-07-19T15:33:36;45.80;49.40
48768;DHT22;34933;40.968;14.538;2022-07-19T15:36:21;46.10;49.10
48768;DHT22;34933;40.968;14.538;2022-07-19T15:39:06;46.30;49.10
48768;DHT22;34933;40.968;14.538;2022-07-19T15:41:51;46.00;49.70
48768;DHT22;34933;40.968;14.538;2022-07-19T15:44:35;45.50;49.70
48768;DHT22;34933;40.968;14.538;2022-07-19T15:47:20;44.10;49.60
48768;DHT22;34933;40.968;14.538;2022-07-19T15:50:07;44.10;51.00
48768;DHT22;34933;40.968;14.538;2022-07-19T15:52:51;45.30;50.40
48768;DHT22;34933;40.968;14.538;2022-07-19T15:55:36;45.60;49.60
48768;DHT22;34933;40.968;14.538;2022-07-19T15:58:21;45.30;49.80
48768;DHT22;34933;40.968;14.538;2022-07-19T16:01:06;45.30;51.00
48768;DHT22;34933;40.968;14.538;2022-07-19T16:03:51;45.00;49.80
48768;DHT22;34933;40.968;14.538;2022-07-19T16:06:35;45.00;50.20
48768;DHT22;34933;40.968;14.538;2022-07-19T16:09:20;44.40;50.80
48768;DHT22;34933;40.968;14.538;2022-07-19T16:12:04;44.20;51.20
48768;DHT22;34933;40.968;14.538;2022-07-19T16:14:49;44.10;52.30
48768;DHT22;34933;40.968;14.538;2022-07-19T16:17:38;44.00;52.30
48768;DHT22;34933;40.968;14.538;2022-07-19T16:20:22;43.50;52.90
48768;DHT22;34933;40.968;14.538;2022-07-19T16:23:07;43.10;53.70
48768;DHT22;34933;40.968;14.538;2022-07-19T16:25:51;43.10;54.10
48768;DHT22;34933;40.968;14.538;2022-07-19T16:28:36;42.40;54.60
48768;DHT22;34933;40.968;14.538;2022-07-19T16:31:21;42.10;54.60
48768;DHT22;34933;40.968;14.538;2022-07-19T16:34:06;41.20;55.20
48768;DHT22;34933;40.968;14.538;2022-07-19T16:36:51;40.60;55.10
48768;DHT22;34933;40.968;14.538;2022-07-19T16:39:36;40.10;55.00
48768;DHT22;34933;40.968;14.538;2022-07-19T16:42:20;38.90;56.70
48768;DHT22;34933;40.968;14.538;2022-07-19T16:45:06;39.20;56.70
48768;DHT22;34933;40.968;14.538;2022-07-19T16:47:50;39.60;55.80
48768;DHT22;34933;40.968;14.538;2022-07-19T16:50:35;39.70;56.10
48768;DHT22;34933;40.968;14.538;2022-07-19T16:53:20;39.10;56.60
48768;DHT22;34933;40.968;14.538;2022-07-19T16:56:05;39.00;56.70
48768;DHT22;34933;40.968;14.538;2022-07-19T16:58:49;38.60;57.00
48768;DHT22;34933;40.968;14.538;2022-07-19T17:01:34;38.40;56.60
48768;DHT22;34933;40.968;14.538;2022-07-19T17:04:18;38.30;57.10
48768;DHT22;34933;40.968;14.538;2022-07-19T17:07:03;38.30;57.30
48768;DHT22;34933;40.968;14.538;2022-07-19T17:09:48;37.80;58.00
48768;DHT22;34933;40.968;14.538;2022-07-19T17:12:32;38.10;58.10
48768;DHT22;34933;40.968;14.538;2022-07-19T17:15:17;38.30;58.00
48768;DHT22;34933;40.968;14.538;2022-07-19T17:18:02;38.10;57.80
48768;DHT22;34933;40.968;14.538;2022-07-19T17:20:47;37.60;58.20
48768;DHT22;34933;40.968;14.538;2022-07-19T17:23:32;37.80;57.70